Time;durP1;ratioP1;P1;durP2;ratioP2;P2;SDS_P1;SDS_P2;PMS_P1;PMS_P2;Temp;Humidity;BMP_temperature;BMP_pressure;BME280_temperature;BME280_humidity;BME280_pressure;Samples;Min_cycle;Max_cycle;Signal;HPM_P1;HPM_P2
2020/12/22 00:01:49;;;;;;;14.50;10.05;;;6.60;86.00;;;;;;5077675;28;20324;-71
2020/12/22 00:04:14;;;;;;;14.95;10.18;;;6.60;86.20;;;;;;5077212;28;20024;-71
2020/12/22 00:06:40;;;;;;;18.40;14.40;;;6.70;85.70;;;;;;5077271;28;20104;-71
2020/12/22 00:09:05;;;;;;;15.43;10.40;;;6.60;85.40;;;;;;5059501;28;20385;-71
2020/12/22 00:11:32;;;;;;;19.05;13.45;;;6.60;85.70;;;;;;5077480;28;20028;-71
2020/12/22 00:13:57;;;;;;;14.50;10.98;;;6.60;85.70;;;;;;5077100;28;20044;-71
2020/12/22 00:16:23;;;;;;;15.63;11.57;;;6.60;85.80;;;;;;5077376;28;20055;-71
2020/12/22 00:18:48;;;;;;;19.15;14.35;;;6.60;85.80;;;;;;5077063;28;20039;-71
2020/12/22 00:21:22;;;;;;;17.40;12.82;;;6.70;85.80;;;;;;5077403;28;20028;-71
2020/12/22 00:23:48;;;;;;;21.80;14.02;;;6.70;85.70;;;;;;5077280;28;20039;-71
2020/12/22 00:26:17;;;;;;;16.05;11.55;;;6.70;85.80;;;;;;5059148;28;20025;-71
2020/12/22 00:28:43;;;;;;;20.80;14.57;;;6.70;85.20;;;;;;5058942;28;20025;-72
2020/12/22 00:31:11;;;;;;;23.52;15.68;;;6.70;85.10;;;;;;5077029;28;20035;-71
2020/12/22 00:33:37;;;;;;;20.58;14.95;;;6.70;85.10;;;;;;5059170;28;20111;-71
2020/12/22 00:36:06;;;;;;;21.67;14.93;;;6.70;85.20;;;;;;5076833;28;20044;-71
2020/12/22 00:38:32;;;;;;;22.77;15.55;;;6.70;84.90;;;;;;5076806;28;20046;-71
2020/12/22 00:40:58;;;;;;;18.42;13.80;;;6.70;84.50;;;;;;5076806;28;20024;-71
2020/12/22 00:43:23;;;;;;;22.27;14.95;;;6.70;85.50;;;;;;5076784;28;20056;-71
2020/12/22 00:45:49;;;;;;;17.98;13.13;;;6.70;85.50;;;;;;5076738;28;20138;-71
2020/12/22 00:48:14;;;;;;;19.13;13.43;;;6.70;85.80;;;;;;5076624;28;20358;-71
2020/12/22 00:50:40;;;;;;;19.20;14.02;;;6.70;85.90;;;;;;5076692;28;20195;-71
2020/12/22 00:53:06;;;;;;;18.40;13.85;;;6.70;86.30;;;;;;5076819;28;20020;-71
2020/12/22 00:55:31;;;;;;;16.30;12.40;;;6.70;86.10;;;;;;5076602;28;20075;-71
2020/12/22 00:57:57;;;;;;;17.58;13.13;;;6.70;86.50;;;;;;5076899;28;20052;-71
2020/12/22 01:00:29;;;;;;;17.77;13.13;;;6.70;86.90;;;;;;5076594;28;20329;-71
2020/12/22 01:02:55;;;;;;;19.75;14.20;;;6.70;87.20;;;;;;5076784;28;20054;-71
2020/12/22 01:05:20;;;;;;;16.33;12.60;;;6.70;87.20;;;;;;5076533;28;20094;-71
2020/12/22 01:07:48;;;;;;;18.75;14.70;;;6.60;87.30;;;;;;5058741;28;20027;-71
2020/12/22 01:10:14;;;;;;;19.48;14.05;;;6.60;87.50;;;;;;5079506;28;20071;-71
2020/12/22 01:12:43;;;;;;;18.38;14.27;;;6.60;87.10;;;;;;5080623;28;20020;-71
2020/12/22 01:15:09;;;;;;;20.95;14.70;;;6.50;87.10;;;;;;5080769;28;20021;-71
2020/12/22 01:17:34;;;;;;;20.58;14.00;;;6.50;87.30;;;;;;5080561;28;20370;-71
2020/12/22 01:20:00;;;;;;;20.00;13.43;;;6.40;87.40;;;;;;5080505;28;20028;-71
2020/12/22 01:22:26;;;;;;;16.70;12.60;;;6.40;87.50;;;;;;5080734;28;20025;-71
2020/12/22 01:24:51;;;;;;;18.60;12.43;;;6.40;87.60;;;;;;5080783;28;20037;-71
2020/12/22 01:27:17;;;;;;;14.55;12.23;;;6.40;87.40;;;;;;5080564;28;20052;-71
2020/12/22 01:29:43;;;;;;;16.27;12.60;;;6.40;87.00;;;;;;5080263;28;20052;-71
2020/12/22 01:32:08;;;;;;;17.58;11.98;;;6.40;86.90;;;;;;5080336;28;20404;-71
2020/12/22 01:34:34;;;;;;;22.63;13.05;;;6.50;86.80;;;;;;5080157;28;20077;-71
2020/12/22 01:36:59;;;;;;;17.45;11.73;;;6.50;86.70;;;;;;5080119;28;20069;-71
2020/12/22 01:39:25;;;;;;;17.30;11.88;;;6.50;87.10;;;;;;5080100;28;20107;-71
2020/12/22 01:41:54;;;;;;;21.08;15.18;;;6.40;87.40;;;;;;5062409;28;20028;-71
2020/12/22 01:44:21;;;;;;;23.30;16.50;;;6.40;87.50;;;;;;5062267;28;20415;-71
2020/12/22 01:46:49;;;;;;;20.60;15.52;;;6.40;87.50;;;;;;5079905;28;20471;-71
2020/12/22 01:49:23;;;;;;;19.30;14.50;;;6.40;87.60;;;;;;5079836;28;20021;-71
2020/12/22 01:51:49;;;;;;;18.90;13.88;;;6.40;87.50;;;;;;5080039;28;20012;-71
2020/12/22 01:54:18;;;;;;;20.20;14.68;;;6.40;87.30;;;;;;5062125;28;20024;-71
2020/12/22 01:56:45;;;;;;;18.33;12.95;;;6.30;86.90;;;;;;5079741;28;20029;-71
2020/12/22 01:59:11;;;;;;;21.40;14.13;;;6.30;87.70;;;;;;5079686;28;20083;-71
2020/12/22 02:01:40;;;;;;;16.20;12.48;;;6.30;87.90;;;;;;5079732;28;20031;-71
2020/12/22 02:04:08;;;;;;;17.08;12.52;;;6.20;88.00;;;;;;5061800;28;20413;-71
2020/12/22 02:06:34;;;;;;;18.38;13.45;;;6.20;87.90;;;;;;5079548;28;20028;-71
2020/12/22 02:09:04;;;;;;;17.65;13.60;;;6.20;87.90;;;;;;5079562;28;20035;-71
2020/12/22 02:11:31;;;;;;;24.27;16.65;;;6.10;88.00;;;;;;5061814;28;20020;-71
2020/12/22 02:13:58;;;;;;;25.08;17.45;;;6.10;87.40;;;;;;5079484;28;20428;-71
2020/12/22 02:16:24;;;;;;;25.00;17.95;;;6.10;87.50;;;;;;5079450;28;20025;-71
2020/12/22 02:18:51;;;;;;;24.40;18.05;;;6.10;87.60;;;;;;5079365;28;20021;-71
2020/12/22 02:21:17;;;;;;;25.30;17.58;;;6.10;87.70;;;;;;5079244;28;20317;-71
2020/12/22 02:23:54;;;;;;;25.98;18.63;;;6.10;87.80;;;;;;5079407;28;20035;-71
2020/12/22 02:26:21;;;;;;;26.55;18.05;;;6.10;88.10;;;;;;5079584;28;20163;-71
2020/12/22 02:28:48;;;;;;;22.02;16.20;;;6.00;88.10;;;;;;5079015;28;20377;-71
2020/12/22 02:31:14;;;;;;;19.70;15.35;;;6.00;88.40;;;;;;5079182;28;20021;-71
2020/12/22 02:33:40;;;;;;;21.45;15.65;;;6.00;88.40;;;;;;5079078;28;20016;-71
2020/12/22 02:36:10;;;;;;;18.48;14.52;;;6.10;88.10;;;;;;5079157;28;20027;-71
2020/12/22 02:38:40;;;;;;;23.77;15.50;;;6.10;88.10;;;;;;5079248;28;20028;-71
2020/12/22 02:41:06;;;;;;;26.98;15.57;;;6.20;87.80;;;;;;5078993;28;20035;-71
2020/12/22 02:43:32;;;;;;;16.83;12.05;;;6.20;87.70;;;;;;5078911;28;20031;-71
2020/12/22 02:45:57;;;;;;;13.82;11.20;;;6.30;86.90;;;;;;5078952;28;20101;-71
2020/12/22 02:48:23;;;;;;;14.95;11.77;;;6.30;86.00;;;;;;5078830;28;20020;-71
2020/12/22 02:50:56;;;;;;;16.98;11.95;;;6.30;85.90;;;;;;5078035;28;20039;-71
2020/12/22 02:53:22;;;;;;;15.05;12.23;;;6.30;85.70;;;;;;5079004;28;20028;-71
2020/12/22 02:55:47;;;;;;;11.82;8.68;;;6.30;85.50;;;;;;5078701;28;20158;-71
2020/12/22 02:58:14;;;;;;;11.13;7.25;;;6.40;84.80;;;;;;5060918;28;20032;-71
2020/12/22 03:00:40;;;;;;;10.27;8.00;;;6.40;84.70;;;;;;5078887;28;20377;-71
2020/12/22 03:03:06;;;;;;;9.82;6.55;;;6.40;84.60;;;;;;5078555;28;20024;-71
2020/12/22 03:05:32;;;;;;;7.18;5.55;;;6.40;84.30;;;;;;5078486;28;20036;-71
2020/12/22 03:07:57;;;;;;;7.05;5.60;;;6.40;83.20;;;;;;5078702;28;20363;-71
2020/12/22 03:10:26;;;;;;;7.78;5.55;;;6.30;82.80;;;;;;5078488;28;20025;-71
2020/12/22 03:12:52;;;;;;;7.72;4.57;;;6.30;82.60;;;;;;5060706;28;20359;-71
2020/12/22 03:15:18;;;;;;;6.80;5.18;;;6.40;82.50;;;;;;5078243;28;20028;-71
2020/12/22 03:17:44;;;;;;;7.30;5.53;;;6.50;81.90;;;;;;5078274;28;20033;-71
2020/12/22 03:20:13;;;;;;;7.88;4.95;;;6.50;81.80;;;;;;5060581;28;20029;-71
2020/12/22 03:22:43;;;;;;;8.23;4.72;;;6.60;81.80;;;;;;5078216;28;20424;-71
2020/12/22 03:25:12;;;;;;;7.03;4.22;;;6.70;80.80;;;;;;5078046;28;20101;-71
2020/12/22 03:27:39;;;;;;;7.07;5.25;;;6.80;81.60;;;;;;5078027;28;20424;-71
2020/12/22 03:30:10;;;;;;;7.30;5.20;;;6.70;82.00;;;;;;5077844;28;20040;-71
2020/12/22 03:32:37;;;;;;;8.20;6.53;;;6.60;83.20;;;;;;5077408;28;20432;-71
2020/12/22 03:35:07;;;;;;;13.15;9.77;;;6.60;83.70;;;;;;5077882;28;20032;-71
2020/12/22 03:37:36;;;;;;;10.70;7.70;;;6.50;84.40;;;;;;5077880;28;20051;-71
2020/12/22 03:40:05;;;;;;;11.45;7.97;;;6.40;84.10;;;;;;5077829;28;20029;-71
2020/12/22 03:42:31;;;;;;;14.20;11.10;;;6.30;84.70;;;;;;5077958;28;20032;-71
2020/12/22 03:45:00;;;;;;;18.33;11.00;;;6.30;85.30;;;;;;5077704;28;20111;-71
2020/12/22 03:47:26;;;;;;;17.13;11.35;;;6.30;85.30;;;;;;5077808;28;20020;-71
2020/12/22 03:49:52;;;;;;;19.83;11.70;;;6.30;85.60;;;;;;5077676;28;20118;-71
2020/12/22 03:52:18;;;;;;;17.63;12.50;;;6.20;85.60;;;;;;5077847;28;20044;-71
2020/12/22 03:54:43;;;;;;;18.55;12.68;;;6.20;86.10;;;;;;5077879;28;20032;-71
2020/12/22 03:57:10;;;;;;;17.92;12.95;;;6.20;86.30;;;;;;5077480;28;20324;-71
2020/12/22 03:59:35;;;;;;;17.85;12.65;;;6.20;86.30;;;;;;5077443;28;20028;-71
2020/12/22 04:02:02;;;;;;;17.08;12.68;;;6.20;86.40;;;;;;5077743;28;20032;-71
2020/12/22 04:04:28;;;;;;;18.23;12.63;;;6.20;86.30;;;;;;5077298;28;20306;-71
2020/12/22 04:06:54;;;;;;;16.98;11.65;;;6.20;86.50;;;;;;5077214;28;20028;-71
2020/12/22 04:09:21;;;;;;;16.25;12.55;;;6.30;86.20;;;;;;5077222;28;20107;-71
2020/12/22 04:11:49;;;;;;;16.50;11.15;;;6.30;86.20;;;;;;5077195;28;20031;-71
2020/12/22 04:14:15;;;;;;;14.23;10.20;;;6.30;86.00;;;;;;5077189;28;20025;-71
2020/12/22 04:16:41;;;;;;;15.13;9.18;;;6.30;85.90;;;;;;5077182;28;20074;-71
2020/12/22 04:19:12;;;;;;;12.32;8.82;;;6.30;86.10;;;;;;5077106;28;20021;-71
2020/12/22 04:21:38;;;;;;;14.10;9.65;;;6.20;86.20;;;;;;5077119;28;20024;-71
2020/12/22 04:24:04;;;;;;;15.27;11.68;;;6.30;86.40;;;;;;5076889;28;20461;-71
2020/12/22 04:26:31;;;;;;;15.55;11.60;;;6.20;86.30;;;;;;5076907;28;20447;-71
2020/12/22 04:28:56;;;;;;;14.23;10.55;;;6.00;86.70;;;;;;5076778;28;20382;-71
2020/12/22 04:31:22;;;;;;;13.88;10.00;;;6.00;87.10;;;;;;5076975;28;20025;-71
2020/12/22 04:33:50;;;;;;;14.25;10.05;;;6.00;87.10;;;;;;5076851;28;20077;-71
2020/12/22 04:36:17;;;;;;;11.75;9.13;;;5.90;87.10;;;;;;5077125;28;20055;-71
2020/12/22 04:38:43;;;;;;;13.18;9.38;;;6.00;87.40;;;;;;5077103;28;20033;-71
2020/12/22 04:41:15;;;;;;;13.23;9.93;;;6.00;87.40;;;;;;5077099;28;20042;-71
2020/12/22 04:43:42;;;;;;;16.30;11.32;;;6.00;87.60;;;;;;5058214;28;20419;-71
2020/12/22 04:46:08;;;;;;;20.20;11.07;;;6.00;87.70;;;;;;5076627;28;20103;-71
2020/12/22 04:48:40;;;;;;;16.80;11.25;;;5.90;87.90;;;;;;5076627;28;20024;-71
2020/12/22 04:51:10;;;;;;;14.88;10.55;;;6.00;88.10;;;;;;5076696;28;20044;-71
2020/12/22 04:53:37;;;;;;;17.05;11.10;;;6.00;87.60;;;;;;5076705;28;20032;-71
2020/12/22 04:56:06;;;;;;;13.38;10.75;;;5.90;88.00;;;;;;5076552;28;20108;-71
2020/12/22 04:58:33;;;;;;;15.18;11.60;;;5.90;88.00;;;;;;5076669;28;20145;-71
2020/12/22 05:00:59;;;;;;;13.63;10.07;;;5.90;88.00;;;;;;5076578;28;20024;-71
2020/12/22 05:03:25;;;;;;;20.10;13.10;;;5.80;88.20;;;;;;5076570;28;20039;-71
2020/12/22 05:05:52;;;;;;;19.50;14.35;;;5.70;88.40;;;;;;5076473;28;20033;-71
2020/12/22 05:08:20;;;;;;;16.13;11.40;;;5.70;88.50;;;;;;5076472;28;20108;-71
2020/12/22 05:10:51;;;;;;;20.88;14.63;;;5.60;88.70;;;;;;5076525;28;20361;-71
2020/12/22 05:13:20;;;;;;;19.15;14.80;;;5.50;88.90;;;;;;5076781;28;20025;-71
2020/12/22 05:15:54;;;;;;;19.38;14.10;;;5.50;89.40;;;;;;5076418;28;20495;-71
2020/12/22 05:18:24;;;;;;;20.80;13.38;;;5.50;89.40;;;;;;5076444;28;20111;-71
2020/12/22 05:20:51;;;;;;;18.38;13.38;;;5.50;89.30;;;;;;5076519;28;20316;-71
2020/12/22 05:23:21;;;;;;;17.15;12.48;;;5.50;88.80;;;;;;5076662;28;20039;-71
2020/12/22 05:25:50;;;;;;;20.45;13.15;;;5.50;88.50;;;;;;5076331;28;20408;-71
2020/12/22 05:28:18;;;;;;;17.58;12.90;;;5.50;88.70;;;;;;5076276;28;20028;-71
2020/12/22 05:30:47;;;;;;;21.02;15.20;;;5.40;88.90;;;;;;5076168;28;20055;-71
2020/12/22 05:33:13;;;;;;;20.13;15.10;;;5.40;89.20;;;;;;5076340;28;20021;-71
2020/12/22 05:35:42;;;;;;;25.98;19.58;;;5.40;89.20;;;;;;5076441;28;20436;-71
2020/12/22 05:38:08;;;;;;;29.30;20.60;;;5.30;89.50;;;;;;5076205;28;20409;-71
2020/12/22 05:40:34;;;;;;;29.33;21.13;;;5.30;89.70;;;;;;5076182;28;20024;-71
2020/12/22 05:43:01;;;;;;;27.77;19.48;;;5.30;90.00;;;;;;5076487;28;20024;-71
2020/12/22 05:45:41;;;;;;;29.13;20.27;;;5.20;89.90;;;;;;5076128;28;20016;-71
2020/12/22 05:48:16;;;;;;;29.75;20.92;;;5.20;90.00;;;;;;5076361;28;20024;-71
2020/12/22 05:50:48;;;;;;;34.72;23.58;;;5.20;90.30;;;;;;5076126;28;20020;-71
2020/12/22 05:53:15;;;;;;;32.90;22.85;;;5.10;91.20;;;;;;5076360;28;20024;-71
2020/12/22 05:55:40;;;;;;;31.13;21.13;;;5.20;91.80;;;;;;5060151;28;20466;-71
2020/12/22 05:58:08;;;;;;;31.73;21.20;;;5.20;91.30;;;;;;5079682;28;20036;-71
2020/12/22 06:00:34;;;;;;;26.33;16.95;;;5.20;91.10;;;;;;5079811;28;20443;-71
2020/12/22 06:03:05;;;;;;;21.58;14.93;;;5.30;90.50;;;;;;5079723;28;20029;-71
2020/12/22 06:05:38;;;;;;;17.55;12.63;;;5.30;89.70;;;;;;5079727;28;20028;-71
2020/12/22 06:08:09;;;;;;;13.63;10.63;;;5.30;89.10;;;;;;5079518;28;20115;-71
2020/12/22 06:10:37;;;;;;;14.00;9.82;;;5.30;88.80;;;;;;5079590;28;20026;-71
2020/12/22 06:13:05;;;;;;;15.30;11.80;;;5.30;88.80;;;;;;5061741;28;20413;-71
2020/12/22 06:15:32;;;;;;;17.00;12.73;;;5.30;89.20;;;;;;5079709;28;20032;-71
2020/12/22 06:17:58;;;;;;;23.45;15.25;;;5.20;89.50;;;;;;5079727;28;20363;-71
2020/12/22 06:20:25;;;;;;;28.58;17.13;;;5.20;89.70;;;;;;5079365;28;20029;-71
2020/12/22 06:22:59;;;;;;;34.67;22.48;;;5.10;89.80;;;;;;5079251;28;20039;-71
2020/12/22 06:25:25;;;;;;;36.22;22.67;;;5.10;89.70;;;;;;5079495;28;20385;-71
2020/12/22 06:27:51;;;;;;;32.38;23.23;;;5.10;90.00;;;;;;5079320;28;20135;-71
2020/12/22 06:30:17;;;;;;;36.95;24.55;;;5.10;90.50;;;;;;5061183;28;20037;-71
2020/12/22 06:32:44;;;;;;;32.65;20.95;;;5.00;90.50;;;;;;5061483;28;20454;-71
2020/12/22 06:35:33;;;;;;;27.80;19.33;;;5.00;90.60;;;;;;5079101;28;20029;-71
2020/12/22 06:37:59;;;;;;;32.35;22.48;;;5.00;90.30;;;;;;5079154;28;20024;-71
2020/12/22 06:40:54;;;;;;;38.25;26.92;;;5.00;90.00;;;;;;5079056;28;20028;-71
2020/12/22 06:43:42;;;;;;;39.05;25.67;;;4.90;90.70;;;;;;5079302;28;20024;-71
2020/12/22 06:46:29;;;;;;;37.67;25.90;;;4.90;91.20;;;;;;5078899;28;20332;-71
2020/12/22 06:48:54;;;;;;;35.05;24.42;;;4.90;91.30;;;;;;5067895;28;20119;-71
2020/12/22 06:51:22;;;;;;;45.38;24.02;;;4.90;91.20;;;;;;5079113;28;20151;-71
2020/12/22 06:53:51;;;;;;;39.42;24.35;;;4.90;91.30;;;;;;5078907;28;20108;-71
2020/12/22 06:56:40;;;;;;;50.63;29.92;;;4.90;91.40;;;;;;5061387;28;20059;-71
2020/12/22 06:59:07;;;;;;;53.92;34.22;;;4.90;92.10;;;;;;5078693;28;20420;-71
2020/12/22 07:01:37;;;;;;;49.85;33.63;;;5.00;92.70;;;;;;5078922;28;20035;-71
2020/12/22 07:04:20;;;;;;;52.00;33.20;;;5.00;93.80;;;;;;5078589;28;20024;-71
2020/12/22 07:07:02;;;;;;;47.50;34.22;;;5.20;94.20;;;;;;5059795;28;20400;-71
2020/12/22 07:09:33;;;;;;;50.75;33.67;;;5.30;93.70;;;;;;5078554;28;20048;-71
2020/12/22 07:12:11;;;;;;;62.35;38.20;;;5.50;93.20;;;;;;5078700;28;20029;-71
2020/12/22 07:14:45;;;;;;;54.95;36.13;;;5.50;92.80;;;;;;5078273;28;20032;-71
2020/12/22 07:17:12;;;;;;;48.33;32.38;;;5.70;92.50;;;;;;5078322;28;20069;-71
2020/12/22 07:19:42;;;;;;;45.42;31.88;;;5.80;91.90;;;;;;5078314;28;20013;-71
2020/12/22 07:22:07;;;;;;;48.40;32.67;;;5.90;91.40;;;;;;5078509;28;20028;-71
2020/12/22 07:24:36;;;;;;;45.05;30.58;;;5.90;91.10;;;;;;5078511;28;20392;-71
2020/12/22 07:27:02;;;;;;;39.22;28.30;;;6.00;90.60;;;;;;5078055;28;20032;-71
2020/12/22 07:29:31;;;;;;;40.22;28.65;;;6.00;90.30;;;;;;5077942;28;20109;-71
2020/12/22 07:31:59;;;;;;;40.60;28.55;;;6.10;89.90;;;;;;5078276;28;20040;-71
2020/12/22 07:34:32;;;;;;;40.85;28.02;;;6.10;89.70;;;;;;5060195;28;20017;-71
2020/12/22 07:37:07;;;;;;;34.38;25.08;;;6.10;89.50;;;;;;5078102;28;20359;-71
2020/12/22 07:39:33;;;;;;;38.00;26.20;;;6.20;89.10;;;;;;5078125;28;20055;-71
2020/12/22 07:42:15;;;;;;;36.38;26.92;;;6.30;89.40;;;;;;5078083;28;20112;-71
2020/12/22 07:44:44;;;;;;;35.33;24.90;;;6.40;89.40;;;;;;5077887;28;20032;-71
2020/12/22 07:47:11;;;;;;;35.45;24.48;;;6.40;89.10;;;;;;5077604;28;20029;-71
2020/12/22 07:49:38;;;;;;;34.13;25.77;;;6.50;88.30;;;;;;5059929;28;20321;-71
2020/12/22 07:52:04;;;;;;;34.60;24.73;;;6.60;87.90;;;;;;5059905;28;20083;-71
2020/12/22 07:54:30;;;;;;;35.33;25.75;;;6.60;87.80;;;;;;5077896;28;20068;-71
2020/12/22 07:57:01;;;;;;;34.38;24.90;;;6.70;87.00;;;;;;5077868;28;20443;-71
2020/12/22 07:59:28;;;;;;;35.28;25.63;;;6.80;87.40;;;;;;5060010;28;20309;-71
2020/12/22 08:02:03;;;;;;;38.30;27.42;;;6.80;86.90;;;;;;5077470;28;20058;-71
2020/12/22 08:04:29;;;;;;;37.05;25.98;;;6.80;87.40;;;;;;5077399;28;20107;-71
2020/12/22 08:07:10;;;;;;;35.72;25.60;;;6.90;87.90;;;;;;5059474;28;20124;-71
2020/12/22 08:09:39;;;;;;;33.00;25.00;;;6.90;87.70;;;;;;5077652;28;20027;-71
2020/12/22 08:12:10;;;;;;;37.75;26.15;;;7.00;87.50;;;;;;5077539;28;20317;-71
2020/12/22 08:14:40;;;;;;;35.78;25.55;;;7.00;87.20;;;;;;5077172;28;20021;-71
2020/12/22 08:17:16;;;;;;;36.17;26.45;;;7.00;87.00;;;;;;5059499;28;20036;-71
2020/12/22 08:19:43;;;;;;;41.95;25.38;;;7.10;85.80;;;;;;5076942;28;20120;-71
2020/12/22 08:22:13;;;;;;;43.92;28.70;;;7.10;85.80;;;;;;5077102;28;20033;-71
2020/12/22 08:24:39;;;;;;;41.90;26.75;;;7.10;85.60;;;;;;5077492;28;20033;-71
2020/12/22 08:27:07;;;;;;;36.03;27.20;;;7.20;85.50;;;;;;5076952;28;20029;-71
2020/12/22 08:29:33;;;;;;;36.35;26.52;;;7.20;85.30;;;;;;5059082;28;20048;-72
2020/12/22 08:32:00;;;;;;;35.25;26.83;;;7.10;85.70;;;;;;5076921;28;20028;-71
2020/12/22 08:34:27;;;;;;;39.60;28.88;;;7.10;85.40;;;;;;5076772;28;20416;-71
2020/12/22 08:36:55;;;;;;;38.90;26.38;;;7.10;85.90;;;;;;5076884;28;20025;-71
2020/12/22 08:39:28;;;;;;;42.00;29.77;;;7.10;86.00;;;;;;5059042;28;20036;-71
2020/12/22 08:41:58;;;;;;;42.75;28.38;;;7.20;85.70;;;;;;5059165;28;20025;-71
2020/12/22 08:44:26;;;;;;;37.45;27.75;;;7.20;86.10;;;;;;5058892;28;20021;-71
2020/12/22 08:46:55;;;;;;;41.05;27.73;;;7.20;87.00;;;;;;5076631;28;20025;-71
2020/12/22 08:49:26;;;;;;;41.20;28.80;;;7.20;86.00;;;;;;5076774;28;20024;-72
2020/12/22 08:51:56;;;;;;;46.53;31.60;;;7.30;86.10;;;;;;5076992;28;20024;-71
2020/12/22 08:54:33;;;;;;;45.95;31.15;;;7.40;85.40;;;;;;5077050;28;20025;-71
2020/12/22 08:57:20;;;;;;;39.03;29.00;;;7.40;86.00;;;;;;5076660;28;20040;-71
2020/12/22 08:59:46;;;;;;;38.95;27.60;;;7.40;86.10;;;;;;5076654;28;20093;-72
2020/12/22 09:02:26;;;;;;;40.97;30.27;;;7.40;85.20;;;;;;5058827;28;20051;-71
2020/12/22 09:04:52;;;;;;;45.30;30.77;;;7.40;85.20;;;;;;5076559;28;20075;-71
2020/12/22 09:07:20;;;;;;;40.55;29.75;;;7.30;85.60;;;;;;5076413;28;20359;-71
2020/12/22 09:09:46;;;;;;;44.45;31.27;;;7.30;85.90;;;;;;5076539;28;20428;-71
2020/12/22 09:12:12;;;;;;;44.88;31.15;;;7.30;86.30;;;;;;5076493;28;20055;-71
2020/12/22 09:14:59;;;;;;;46.50;33.08;;;7.30;86.10;;;;;;5076462;28;20021;-71
2020/12/22 09:17:36;;;;;;;51.05;32.78;;;7.30;86.50;;;;;;5076773;28;20313;-71
2020/12/22 09:20:02;;;;;;;49.67;33.20;;;7.40;86.30;;;;;;5076437;28;20032;-71
2020/12/22 09:22:32;;;;;;;47.25;32.17;;;7.50;85.30;;;;;;5076519;28;20028;-71
2020/12/22 09:25:00;;;;;;;40.55;29.05;;;7.40;85.90;;;;;;5076722;28;20126;-71
2020/12/22 09:27:31;;;;;;;47.63;31.73;;;7.40;85.00;;;;;;5076250;28;20424;-71
2020/12/22 09:29:57;;;;;;;47.30;31.85;;;7.40;85.60;;;;;;5076626;28;20051;-71
2020/12/22 09:32:29;;;;;;;42.38;30.80;;;7.30;85.90;;;;;;5080548;28;20060;-71
2020/12/22 09:34:55;;;;;;;45.40;30.70;;;7.30;86.20;;;;;;5080276;28;20083;-71
2020/12/22 09:37:23;;;;;;;46.50;31.50;;;7.40;85.80;;;;;;5080188;28;20057;-71
2020/12/22 09:39:50;;;;;;;43.97;30.50;;;7.50;85.80;;;;;;5080094;28;20046;-71
2020/12/22 09:42:17;;;;;;;45.53;30.20;;;7.50;85.80;;;;;;5080629;28;20024;-72
2020/12/22 09:44:43;;;;;;;45.72;31.98;;;7.60;84.90;;;;;;5080037;28;20028;-71
2020/12/22 09:47:09;;;;;;;46.55;32.53;;;7.70;85.00;;;;;;5080203;28;20424;-71
2020/12/22 09:49:37;;;;;;;44.30;30.85;;;7.70;85.10;;;;;;5079992;28;20046;-71
2020/12/22 09:52:04;;;;;;;41.55;29.70;;;7.80;85.00;;;;;;5080100;28;20023;-71
2020/12/22 09:54:30;;;;;;;43.38;29.45;;;7.90;84.80;;;;;;5080176;28;20302;-72
2020/12/22 09:56:56;;;;;;;44.05;31.15;;;8.00;84.80;;;;;;5079815;28;20031;-71
2020/12/22 09:59:22;;;;;;;39.95;29.17;;;8.00;85.70;;;;;;5079763;28;20017;-71
2020/12/22 10:01:48;;;;;;;42.63;29.77;;;8.00;85.60;;;;;;5062088;28;20075;-71
2020/12/22 10:04:17;;;;;;;42.15;30.63;;;8.10;84.40;;;;;;5079632;28;20013;-71
2020/12/22 10:06:43;;;;;;;48.13;32.60;;;8.20;84.00;;;;;;5060771;28;20152;-72
2020/12/22 10:09:16;;;;;;;48.80;34.30;;;8.30;84.30;;;;;;5088878;28;20435;-72
2020/12/22 10:11:42;;;;;;;53.40;36.33;;;8.30;84.70;;;;;;5080344;28;20023;-72
2020/12/22 10:14:08;;;;;;;47.38;35.70;;;8.30;85.40;;;;;;5061695;28;20028;-72
2020/12/22 10:16:34;;;;;;;58.60;36.63;;;8.30;84.50;;;;;;5079491;28;20025;-71
2020/12/22 10:19:01;;;;;;;53.28;37.33;;;8.50;84.60;;;;;;5079450;28;20020;-71
2020/12/22 10:21:26;;;;;;;63.63;40.13;;;8.40;84.50;;;;;;5079668;28;20048;-71
2020/12/22 10:24:04;;;;;;;71.72;43.03;;;8.40;85.10;;;;;;5079621;28;20048;-71
2020/12/22 10:26:30;;;;;;;57.83;40.72;;;8.40;85.20;;;;;;5079571;28;20032;-72
2020/12/22 10:28:56;;;;;;;57.55;39.80;;;8.30;86.20;;;;;;5078967;28;20028;-72
2020/12/22 10:31:24;;;;;;;54.95;38.17;;;8.20;86.10;;;;;;5079248;28;20044;-71
2020/12/22 10:33:56;;;;;;;58.63;39.78;;;8.10;86.30;;;;;;5079158;28;20308;-71
2020/12/22 10:36:23;;;;;;;58.50;39.85;;;8.00;87.10;;;;;;5079428;28;20035;-71
2020/12/22 10:38:52;;;;;;;56.20;38.38;;;7.90;88.00;;;;;;5061278;28;20110;-72
2020/12/22 10:41:19;;;;;;;58.80;39.53;;;7.90;87.60;;;;;;5078683;28;20040;-71
2020/12/22 10:43:46;;;;;;;53.08;37.92;;;7.80;87.30;;;;;;5078596;28;20305;-72
2020/12/22 10:46:12;;;;;;;55.80;37.75;;;7.80;87.30;;;;;;5078886;28;20025;-71
2020/12/22 10:48:38;;;;;;;58.05;38.03;;;7.80;87.60;;;;;;5078817;28;20082;-71
2020/12/22 10:51:04;;;;;;;55.05;39.25;;;7.80;87.10;;;;;;5078929;28;20021;-71
2020/12/22 10:53:32;;;;;;;55.53;37.42;;;7.80;87.60;;;;;;5079122;28;20025;-72
2020/12/22 10:55:58;;;;;;;55.72;37.20;;;7.90;87.90;;;;;;5078694;28;20031;-72
2020/12/22 10:58:30;;;;;;;53.65;38.17;;;7.90;87.50;;;;;;5078964;28;20028;-71
2020/12/22 11:00:55;;;;;;;56.28;38.45;;;7.90;87.50;;;;;;5078604;28;20336;-72
2020/12/22 11:03:21;;;;;;;57.20;37.90;;;7.80;87.80;;;;;;5078298;28;20024;-71
2020/12/22 11:06:04;;;;;;;51.53;37.90;;;7.90;87.80;;;;;;5078486;28;20037;-72
2020/12/22 11:08:33;;;;;;;52.90;37.40;;;7.90;87.70;;;;;;5078768;28;20025;-71
2020/12/22 11:10:59;;;;;;;49.38;36.47;;;7.90;87.70;;;;;;5078549;28;20021;-72
2020/12/22 11:13:24;;;;;;;54.50;35.22;;;7.80;87.30;;;;;;5078546;28;20027;-71
2020/12/22 11:15:50;;;;;;;53.65;35.85;;;7.90;87.60;;;;;;5078387;28;20056;-71
2020/12/22 11:18:16;;;;;;;56.63;37.17;;;7.90;87.20;;;;;;5060593;28;20025;-71
2020/12/22 11:20:42;;;;;;;54.33;36.95;;;7.90;86.90;;;;;;5078531;28;20461;-71
2020/12/22 11:23:07;;;;;;;55.15;38.28;;;7.90;86.90;;;;;;5078319;28;20332;-72
2020/12/22 11:25:33;;;;;;;59.00;40.20;;;7.90;87.60;;;;;;5078145;28;20036;-72
2020/12/22 11:28:01;;;;;;;62.60;41.75;;;7.90;87.80;;;;;;5078161;28;20028;-71
2020/12/22 11:30:26;;;;;;;59.85;41.13;;;7.80;88.30;;;;;;5056812;28;20099;-72
2020/12/22 11:32:52;;;;;;;61.60;41.28;;;7.70;88.70;;;;;;5058011;28;20025;-71
2020/12/22 11:35:19;;;;;;;59.97;42.33;;;7.80;89.00;;;;;;5057860;28;20025;-72
2020/12/22 11:37:45;;;;;;;66.05;45.40;;;7.80;88.10;;;;;;5058192;28;20039;-71
2020/12/22 11:40:10;;;;;;;67.75;45.42;;;7.70;89.40;;;;;;5057892;28;20029;-72
2020/12/22 11:42:40;;;;;;;65.13;44.50;;;7.70;89.40;;;;;;5058060;28;20032;-71
2020/12/22 11:45:09;;;;;;;61.40;42.72;;;7.70;89.10;;;;;;5058277;28;20366;-71
2020/12/22 11:47:35;;;;;;;66.97;46.83;;;7.70;88.50;;;;;;5057622;28;20032;-71
2020/12/22 11:50:01;;;;;;;66.10;46.00;;;7.70;88.80;;;;;;5056626;28;20039;-71
2020/12/22 11:52:26;;;;;;;61.97;42.55;;;7.70;88.80;;;;;;5057269;28;20029;-72
2020/12/22 11:54:52;;;;;;;65.22;45.80;;;7.60;88.60;;;;;;5057244;28;20100;-72
2020/12/22 11:57:18;;;;;;;66.75;45.05;;;7.60;88.90;;;;;;5056437;28;20033;-71
2020/12/22 11:59:43;;;;;;;72.53;46.95;;;7.60;89.40;;;;;;5057527;28;20138;-71
2020/12/22 12:02:11;;;;;;;65.20;44.70;;;7.60;89.40;;;;;;5057554;28;20082;-71
2020/12/22 12:04:40;;;;;;;73.88;52.05;;;7.70;88.70;;;;;;5057487;28;20040;-71
2020/12/22 12:07:05;;;;;;;85.55;53.75;;;7.70;89.10;;;;;;5056277;28;20029;-72
2020/12/22 12:09:31;;;;;;;80.38;53.80;;;7.70;89.30;;;;;;5057266;28;20073;-72
2020/12/22 12:11:57;;;;;;;70.72;49.78;;;7.70;89.20;;;;;;5057632;28;20038;-72
2020/12/22 12:14:22;;;;;;;76.40;49.63;;;7.70;89.40;;;;;;5057469;28;20040;-71
2020/12/22 12:16:49;;;;;;;71.50;47.80;;;7.70;89.00;;;;;;5057491;28;20429;-72
2020/12/22 12:19:16;;;;;;;74.32;49.00;;;7.70;89.10;;;;;;5056149;28;20037;-72
2020/12/22 12:21:42;;;;;;;78.53;49.85;;;7.60;89.30;;;;;;5057152;28;20031;-71
2020/12/22 12:24:08;;;;;;;66.00;43.30;;;7.60;90.10;;;;;;5057294;28;20056;-72
2020/12/22 12:26:35;;;;;;;67.38;48.10;;;7.60;90.10;;;;;;5057145;28;20018;-72
2020/12/22 12:29:03;;;;;;;73.85;47.97;;;7.70;89.80;;;;;;5057183;28;20044;-72
2020/12/22 12:31:33;;;;;;;77.53;49.72;;;7.70;89.80;;;;;;5077030;28;20082;-72
2020/12/22 12:33:59;;;;;;;75.03;48.92;;;7.60;90.20;;;;;;5076830;28;20028;-72
2020/12/22 12:36:25;;;;;;;74.28;49.38;;;7.60;90.40;;;;;;5077136;28;20094;-71
2020/12/22 12:38:51;;;;;;;77.90;49.63;;;7.60;90.20;;;;;;5077193;28;20316;-71
2020/12/22 12:41:16;;;;;;;78.55;48.28;;;7.60;89.70;;;;;;5076906;28;20025;-71
2020/12/22 12:43:45;;;;;;;73.05;47.55;;;7.60;89.60;;;;;;5076823;28;20083;-71